createdAt,value
2023-10-17T00:01:56.113Z,4.50
2023-10-17T00:04:24.532Z,5.53
2023-10-17T00:06:54.423Z,9.45
2023-10-17T00:09:26.027Z,5.38
2023-10-17T00:11:56.480Z,9.93
2023-10-17T00:14:38.402Z,6.68
2023-10-17T00:17:06.787Z,2.75
2023-10-17T00:19:35.041Z,4.30
2023-10-17T00:22:06.246Z,4.55
2023-10-17T00:24:37.579Z,2.40
2023-10-17T00:27:08.181Z,5.38
2023-10-17T00:29:36.561Z,1.90
2023-10-17T00:32:04.975Z,5.97
2023-10-17T00:34:38.128Z,7.35
2023-10-17T00:37:12.737Z,5.25
2023-10-17T00:39:41.380Z,4.68
2023-10-17T00:42:10.093Z,3.30
2023-10-17T00:44:42.746Z,4.95
2023-10-17T00:47:13.230Z,2.30
2023-10-17T00:49:45.701Z,4.28
2023-10-17T00:52:25.804Z,4.90
2023-10-17T00:54:55.356Z,3.83
2023-10-17T00:57:28.382Z,2.42
2023-10-17T00:59:58.583Z,6.13
2023-10-17T01:02:33.126Z,2.83
2023-10-17T01:05:01.786Z,4.50
2023-10-17T01:07:35.687Z,3.83
2023-10-17T01:10:12.089Z,5.13
2023-10-17T01:13:01.778Z,5.65
2023-10-17T01:15:34.047Z,4.13
2023-10-17T01:18:05.641Z,4.93
2023-10-17T01:20:35.926Z,1.80
2023-10-17T01:23:05.689Z,3.25
2023-10-17T01:25:42.152Z,3.03
2023-10-17T01:28:11.746Z,4.80
2023-10-17T01:30:42.616Z,2.38
2023-10-17T01:33:11.541Z,7.20
2023-10-17T01:35:45.226Z,3.55
2023-10-17T01:38:14.423Z,3.92
2023-10-17T01:40:42.701Z,7.47
2023-10-17T01:43:11.738Z,2.78
2023-10-17T01:45:43.572Z,3.72
2023-10-17T01:48:12.710Z,2.35
2023-10-17T01:50:41.124Z,4.78
2023-10-17T01:53:13.961Z,3.45
2023-10-17T01:55:53.272Z,6.93
2023-10-17T01:58:23.407Z,4.30
2023-10-17T02:00:56.075Z,2.83
2023-10-17T02:03:24.660Z,2.47
2023-10-17T02:05:52.931Z,4.20
2023-10-17T02:08:23.282Z,4.22
2023-10-17T02:10:52.331Z,4.80
2023-10-17T02:13:22.408Z,4.38
2023-10-17T02:15:52.028Z,4.63
2023-10-17T02:18:20.684Z,6.65
2023-10-17T02:20:52.788Z,1.73
2023-10-17T02:23:21.421Z,4.18
2023-10-17T02:25:51.680Z,3.83
2023-10-17T02:28:21.403Z,3.70
2023-10-17T02:30:49.913Z,3.53
2023-10-17T02:33:18.767Z,4.45
2023-10-17T02:36:12.131Z,6.20
2023-10-17T02:38:41.671Z,6.35
2023-10-17T02:41:25.595Z,4.53
2023-10-17T02:43:55.115Z,3.58
2023-10-17T02:46:28.259Z,4.03
2023-10-17T02:51:28.901Z,2.38
2023-10-17T02:53:57.738Z,2.60
2023-10-17T02:56:27.422Z,1.92
2023-10-17T02:59:13.361Z,3.65
2023-10-17T03:01:44.264Z,6.57
2023-10-17T03:04:14.539Z,5.25
2023-10-17T03:06:46.001Z,3.75
2023-10-17T03:09:24.735Z,3.25
2023-10-17T03:11:57.992Z,4.28
2023-10-17T03:14:34.351Z,4.40
2023-10-17T03:17:05.425Z,4.57
2023-10-17T03:19:34.946Z,2.72
2023-10-17T03:22:25.417Z,4.75
2023-10-17T03:25:02.852Z,3.15
2023-10-17T03:27:39.350Z,5.55
2023-10-17T03:30:12.667Z,3.63
2023-10-17T03:35:36.475Z,4.10
2023-10-17T03:38:05.488Z,3.88
2023-10-17T03:40:52.134Z,2.40
2023-10-17T03:43:22.898Z,4.82
2023-10-17T03:45:57.918Z,4.57
2023-10-17T03:48:30.521Z,2.58
2023-10-17T03:51:00.916Z,3.20
2023-10-17T03:53:33.290Z,3.13
2023-10-17T03:56:03.692Z,6.85
2023-10-17T03:58:32.523Z,5.55
2023-10-17T04:01:11.561Z,3.17
2023-10-17T04:03:39.971Z,2.33
2023-10-17T04:06:08.521Z,2.88
2023-10-17T04:08:49.709Z,5.65
2023-10-17T04:11:23.332Z,5.35
2023-10-17T04:13:56.348Z,3.10
2023-10-17T04:16:35.671Z,4.45
2023-10-17T04:19:22.172Z,4.95
2023-10-17T04:22:02.818Z,4.25
2023-10-17T04:24:40.328Z,4.45
2023-10-17T04:27:14.513Z,4.68
2023-10-17T04:29:51.640Z,8.35
2023-10-17T04:32:23.021Z,4.85
2023-10-17T04:34:53.861Z,5.07
2023-10-17T04:37:35.059Z,6.57
2023-10-17T04:40:29.066Z,4.03
2023-10-17T04:42:58.529Z,5.07
2023-10-17T04:45:30.844Z,3.50
2023-10-17T04:48:19.327Z,4.18
2023-10-17T04:50:57.421Z,3.40
2023-10-17T04:53:36.602Z,3.90
2023-10-17T04:56:17.228Z,3.90
2023-10-17T04:58:49.020Z,2.30
2023-10-17T05:01:38.231Z,3.05
2023-10-17T05:04:20.810Z,4.45
2023-10-17T05:06:58.530Z,1.75
2023-10-17T05:09:33.071Z,2.65
2023-10-17T05:12:20.176Z,3.50
2023-10-17T05:15:09.496Z,3.25
2023-10-17T05:17:56.547Z,3.78
2023-10-17T05:20:44.879Z,3.95
2023-10-17T05:23:32.805Z,5.80
2023-10-17T05:26:27.052Z,3.65
2023-10-17T05:29:13.911Z,5.45
2023-10-17T05:32:03.359Z,5.13
2023-10-17T05:34:51.310Z,4.63
2023-10-17T05:37:41.128Z,6.63
2023-10-17T05:40:28.138Z,9.80
2023-10-17T05:43:14.765Z,6.35
2023-10-17T05:46:01.442Z,4.55
2023-10-17T05:48:50.935Z,5.50
2023-10-17T05:51:37.995Z,11.27
2023-10-17T05:54:55.876Z,7.88
2023-10-17T05:57:34.605Z,5.18
2023-10-17T06:00:21.491Z,13.70
2023-10-17T06:03:25.421Z,7.45
2023-10-17T06:06:25.428Z,10.43
2023-10-17T06:09:19.448Z,8.80
2023-10-17T06:12:08.638Z,6.13
2023-10-17T06:14:55.714Z,9.80
2023-10-17T06:17:25.138Z,7.03
2023-10-17T06:19:53.898Z,8.27
2023-10-17T06:22:22.190Z,6.13
2023-10-17T06:25:02.346Z,8.45
2023-10-17T06:27:52.385Z,6.53
2023-10-17T06:30:30.641Z,13.90
2023-10-17T06:33:18.988Z,8.30
2023-10-17T06:35:55.557Z,9.45
2023-10-17T06:38:31.161Z,3.58
2023-10-17T06:41:17.214Z,7.40
2023-10-17T06:43:51.434Z,7.15
2023-10-17T06:46:40.884Z,6.47
2023-10-17T06:49:10.222Z,8.45
2023-10-17T06:51:40.202Z,5.28
2023-10-17T06:54:08.857Z,3.40
2023-10-17T06:56:45.532Z,6.60
2023-10-17T06:59:25.143Z,3.60
2023-10-17T07:02:27.394Z,7.13
2023-10-17T07:04:59.293Z,16.42
2023-10-17T07:07:41.466Z,15.93
2023-10-17T07:10:29.708Z,8.55
2023-10-17T07:13:40.552Z,4.95
2023-10-17T07:16:15.257Z,10.55
2023-10-17T07:18:48.426Z,11.07
2023-10-17T07:21:18.440Z,13.82
2023-10-17T07:23:51.370Z,12.65
2023-10-17T07:26:25.423Z,9.77
2023-10-17T07:28:54.223Z,7.88
2023-10-17T07:31:26.079Z,10.25
2023-10-17T07:34:17.526Z,7.63
2023-10-17T07:36:49.172Z,13.75
2023-10-17T07:39:24.080Z,9.80
2023-10-17T07:41:55.320Z,5.43
2023-10-17T07:44:28.157Z,7.43
2023-10-17T07:47:04.678Z,13.75
2023-10-17T07:49:35.519Z,10.52
2023-10-17T07:52:16.922Z,16.38
2023-10-17T07:55:21.367Z,9.63
2023-10-17T07:57:56.637Z,9.90
2023-10-17T08:00:30.368Z,9.50
2023-10-17T08:03:18.862Z,7.88
2023-10-17T08:06:09.070Z,7.85
2023-10-17T08:08:43.528Z,9.00
2023-10-17T08:11:33.216Z,9.05
2023-10-17T08:14:05.466Z,8.52
2023-10-17T08:16:34.455Z,12.85
2023-10-17T08:19:23.148Z,11.90
2023-10-17T08:21:54.749Z,10.07
2023-10-17T08:24:41.916Z,11.63
2023-10-17T08:27:22.730Z,9.82
2023-10-17T08:30:13.454Z,9.65
2023-10-17T08:33:00.882Z,9.00
2023-10-17T08:35:39.285Z,11.30
2023-10-17T08:38:08.522Z,12.43
2023-10-17T08:40:36.802Z,12.60
2023-10-17T08:43:16.456Z,12.00
2023-10-17T08:45:49.024Z,10.77
2023-10-17T08:48:17.756Z,11.93
2023-10-17T08:50:46.183Z,13.65
2023-10-17T08:53:15.156Z,12.88
2023-10-17T08:55:43.606Z,9.98
2023-10-17T08:58:12.368Z,8.95
2023-10-17T09:00:47.283Z,10.38
2023-10-17T09:03:30.852Z,9.23
2023-10-17T09:06:08.851Z,8.98
2023-10-17T09:08:52.608Z,8.68
2023-10-17T09:14:31.134Z,12.13
2023-10-17T09:17:27.618Z,17.13
2023-10-17T09:19:58.388Z,8.60
2023-10-17T09:22:29.494Z,7.90
2023-10-17T09:25:01.115Z,13.02
2023-10-17T09:27:32.917Z,10.02
2023-10-17T09:30:01.359Z,11.93
2023-10-17T09:32:41.830Z,12.57
2023-10-17T09:35:17.162Z,10.00
2023-10-17T09:37:52.870Z,7.47
2023-10-17T09:40:31.688Z,8.18
2023-10-17T09:43:01.584Z,11.10
2023-10-17T09:45:37.104Z,6.43
2023-10-17T09:48:09.848Z,9.38
2023-10-17T09:50:39.666Z,13.95
2023-10-17T09:53:19.159Z,11.65
2023-10-17T09:55:50.473Z,11.68
2023-10-17T09:58:32.810Z,8.02
2023-10-17T10:01:18.567Z,10.95
2023-10-17T10:03:50.107Z,11.15
2023-10-17T10:06:32.278Z,9.23
2023-10-17T10:09:26.503Z,8.90
2023-10-17T10:14:32.009Z,13.68
2023-10-17T10:17:04.340Z,7.47
2023-10-17T10:19:52.089Z,9.45
2023-10-17T10:22:20.410Z,10.38
2023-10-17T10:25:04.057Z,14.00
2023-10-17T10:30:44.947Z,10.57
2023-10-17T10:33:14.945Z,9.48
2023-10-17T10:35:46.624Z,10.75
2023-10-17T10:38:15.905Z,6.72
2023-10-17T10:40:47.374Z,10.73
2023-10-17T10:43:20.231Z,13.27
2023-10-17T10:45:56.589Z,10.83
2023-10-17T10:48:27.908Z,17.02
2023-10-17T10:50:59.100Z,7.63
2023-10-17T10:53:40.561Z,7.20
2023-10-17T10:56:12.400Z,6.55
2023-10-17T10:58:48.888Z,11.38
2023-10-17T11:01:17.447Z,7.70
2023-10-17T11:03:49.880Z,7.35
2023-10-17T11:06:26.200Z,5.50
2023-10-17T11:08:57.808Z,6.68
2023-10-17T11:11:27.054Z,6.90
2023-10-17T11:13:56.062Z,10.07
2023-10-17T11:16:26.675Z,8.98
2023-10-17T11:18:58.413Z,6.93
2023-10-17T11:21:26.900Z,7.82
2023-10-17T11:24:01.923Z,8.30
2023-10-17T11:26:35.552Z,6.65
2023-10-17T11:29:04.916Z,6.70
2023-10-17T11:31:34.614Z,6.90
2023-10-17T11:34:06.074Z,9.90
2023-10-17T11:36:49.438Z,7.80
2023-10-17T11:39:17.876Z,8.73
2023-10-17T11:41:54.478Z,8.57
2023-10-17T11:44:29.148Z,10.00
2023-10-17T11:47:04.418Z,10.95
2023-10-17T11:49:37.402Z,9.30
2023-10-17T11:52:13.851Z,14.80
2023-10-17T11:54:57.467Z,7.07
2023-10-17T11:57:32.758Z,6.25
2023-10-17T12:00:09.083Z,9.88
2023-10-17T12:02:43.266Z,8.80
2023-10-17T12:05:19.406Z,9.73
2023-10-17T12:07:51.548Z,7.63
2023-10-17T12:10:27.098Z,7.78
2023-10-17T12:13:07.866Z,5.63
2023-10-17T12:15:36.331Z,7.65
2023-10-17T12:18:04.868Z,10.55
2023-10-17T12:20:33.138Z,7.80
2023-10-17T12:23:01.882Z,6.88
2023-10-17T12:25:34.227Z,7.97
2023-10-17T12:28:03.667Z,9.10
2023-10-17T12:30:37.904Z,7.93
2023-10-17T12:33:10.228Z,10.45
2023-10-17T12:35:39.114Z,10.10
2023-10-17T12:38:15.475Z,11.35
2023-10-17T12:40:44.383Z,7.68
2023-10-17T12:43:13.284Z,7.57
2023-10-17T12:45:42.996Z,11.43
2023-10-17T12:48:12.437Z,6.90
2023-10-17T12:50:46.851Z,18.33
2023-10-17T12:53:15.799Z,10.25
2023-10-17T12:55:44.003Z,7.43
2023-10-17T12:58:12.273Z,8.63
2023-10-17T13:00:42.649Z,10.05
2023-10-17T13:03:11.035Z,7.72
2023-10-17T13:05:39.677Z,11.18
2023-10-17T13:08:08.569Z,6.10
2023-10-17T13:10:36.891Z,9.85
2023-10-17T13:13:05.247Z,6.90
2023-10-17T13:15:33.506Z,6.22
2023-10-17T13:18:08.045Z,10.38
2023-10-17T13:20:43.433Z,6.50
2023-10-17T13:23:24.793Z,6.28
2023-10-17T13:25:54.784Z,10.02
2023-10-17T13:28:26.487Z,11.45
2023-10-17T13:30:54.817Z,8.68
2023-10-17T13:33:23.221Z,9.40
2023-10-17T13:35:51.451Z,7.85
2023-10-17T13:38:21.538Z,10.20
2023-10-17T13:40:49.773Z,7.85
2023-10-17T13:43:19.126Z,7.65
2023-10-17T13:45:47.569Z,10.55
2023-10-17T13:48:16.021Z,9.50
2023-10-17T13:50:44.295Z,10.98
2023-10-17T13:53:18.125Z,8.13
2023-10-17T13:55:46.651Z,8.73
2023-10-17T13:58:16.884Z,7.18
2023-10-17T14:00:45.561Z,7.55
2023-10-17T14:03:15.453Z,9.55
2023-10-17T14:05:50.047Z,7.80
2023-10-17T14:08:19.680Z,14.40
2023-10-17T14:10:48.300Z,11.38
2023-10-17T14:13:18.652Z,9.32
2023-10-17T14:15:46.998Z,9.27
2023-10-17T14:18:16.033Z,7.45
2023-10-17T14:21:24.868Z,6.57
2023-10-17T14:23:59.319Z,3.33
2023-10-17T14:26:30.532Z,6.93
2023-10-17T14:29:01.660Z,8.10
2023-10-17T14:31:32.398Z,5.78
2023-10-17T14:34:02.047Z,7.03
2023-10-17T14:36:30.576Z,8.38
2023-10-17T14:39:00.915Z,7.93
2023-10-17T14:41:31.776Z,10.77
2023-10-17T14:44:02.958Z,5.97
2023-10-17T14:46:31.773Z,5.38
2023-10-17T14:49:03.115Z,6.15
2023-10-17T14:51:34.678Z,6.00
2023-10-17T14:54:07.281Z,11.98
2023-10-17T14:56:37.464Z,9.43
2023-10-17T14:59:06.526Z,7.57
2023-10-17T15:01:37.346Z,14.45
2023-10-17T15:04:07.200Z,9.93
2023-10-17T15:06:37.824Z,7.28
2023-10-17T15:09:10.243Z,6.47
2023-10-17T15:11:39.655Z,10.75
2023-10-17T15:14:10.086Z,8.77
2023-10-17T15:16:38.857Z,9.38
2023-10-17T15:19:09.991Z,7.82
2023-10-17T15:21:38.848Z,6.00
2023-10-17T15:24:11.571Z,4.18
2023-10-17T15:26:42.800Z,4.90
2023-10-17T15:29:13.488Z,7.93
2023-10-17T15:31:44.772Z,6.97
2023-10-17T15:34:14.783Z,6.60
2023-10-17T15:36:44.128Z,11.77
2023-10-17T15:39:14.548Z,10.63
2023-10-17T15:41:42.821Z,13.73
2023-10-17T15:44:13.997Z,7.50
2023-10-17T15:46:42.415Z,10.13
2023-10-17T15:49:14.486Z,8.57
2023-10-17T15:51:42.795Z,9.13
2023-10-17T15:54:11.251Z,11.35
2023-10-17T15:56:39.545Z,9.32
2023-10-17T15:59:10.920Z,8.40
2023-10-17T16:01:39.160Z,9.38
2023-10-17T16:04:08.339Z,8.27
2023-10-17T16:06:36.828Z,12.73
2023-10-17T16:09:08.489Z,7.55
2023-10-17T16:11:38.263Z,10.80
2023-10-17T16:14:06.576Z,8.30
2023-10-17T16:16:36.518Z,8.63
2023-10-17T16:19:05.202Z,14.50
2023-10-17T16:21:33.496Z,9.15
2023-10-17T16:24:02.961Z,10.18
2023-10-17T16:26:31.654Z,11.05
2023-10-17T16:29:00.081Z,7.50
2023-10-17T16:31:28.313Z,6.40
2023-10-17T16:33:57.194Z,8.00
2023-10-17T16:36:26.670Z,7.72
2023-10-17T16:38:55.544Z,13.68
2023-10-17T16:41:26.899Z,11.43
2023-10-17T16:43:55.200Z,5.43
2023-10-17T16:46:30.249Z,7.15
2023-10-17T16:49:01.192Z,13.00
2023-10-17T16:51:31.314Z,7.85
2023-10-17T16:53:59.880Z,6.72
2023-10-17T16:56:28.231Z,7.93
2023-10-17T16:58:58.377Z,12.57
2023-10-17T17:01:26.923Z,9.65
2023-10-17T17:03:55.366Z,9.40
2023-10-17T17:06:24.804Z,8.13
2023-10-17T17:08:59.010Z,7.20
2023-10-17T17:11:27.588Z,6.90
2023-10-17T17:13:55.899Z,11.27
2023-10-17T17:16:24.283Z,8.80
2023-10-17T17:18:52.682Z,13.52
2023-10-17T17:21:22.243Z,9.80
2023-10-17T17:23:51.030Z,5.30
2023-10-17T17:26:19.394Z,14.13
2023-10-17T17:28:47.719Z,10.73
2023-10-17T17:31:16.044Z,13.95
2023-10-17T17:33:44.412Z,15.63
2023-10-17T17:36:12.733Z,11.05
2023-10-17T17:38:44.440Z,12.98
2023-10-17T17:41:13.589Z,12.10
2023-10-17T17:43:47.228Z,14.30
2023-10-17T17:46:18.597Z,15.13
2023-10-17T17:48:48.391Z,5.80
2023-10-17T17:51:18.194Z,7.93
2023-10-17T17:53:48.730Z,8.52
2023-10-17T17:56:17.553Z,15.35
2023-10-17T17:58:48.493Z,12.02
2023-10-17T18:01:17.609Z,11.77
2023-10-17T18:03:46.283Z,8.18
2023-10-17T18:06:18.142Z,7.30
2023-10-17T18:11:36.455Z,9.30
2023-10-17T18:14:07.626Z,10.25
2023-10-17T18:16:42.082Z,12.55
2023-10-17T18:19:10.542Z,7.80
2023-10-17T18:21:38.965Z,10.45
2023-10-17T18:24:08.482Z,10.27
2023-10-17T18:26:42.104Z,11.52
2023-10-17T18:29:13.499Z,10.05
2023-10-17T18:31:42.389Z,11.05
2023-10-17T18:34:11.782Z,9.35
2023-10-17T18:36:40.244Z,11.70
2023-10-17T18:39:11.564Z,12.60
2023-10-17T18:41:41.926Z,8.90
2023-10-17T18:44:15.731Z,10.57
2023-10-17T18:46:48.423Z,11.02
2023-10-17T18:49:19.304Z,11.52
2023-10-17T18:51:47.720Z,10.45
2023-10-17T18:54:16.324Z,15.00
2023-10-17T18:56:45.108Z,8.80
2023-10-17T18:59:14.034Z,8.38
2023-10-17T19:01:42.512Z,8.15
2023-10-17T19:04:11.706Z,10.88
2023-10-17T19:06:40.087Z,8.75
2023-10-17T19:09:11.788Z,8.13
2023-10-17T19:11:40.121Z,12.07
2023-10-17T19:14:08.528Z,8.48
2023-10-17T19:16:41.837Z,13.43
2023-10-17T19:19:10.688Z,12.85
2023-10-17T19:21:40.312Z,12.38
2023-10-17T19:24:09.221Z,10.93
2023-10-17T19:26:37.505Z,9.35
2023-10-17T19:29:06.177Z,5.55
2023-10-17T19:31:34.433Z,8.45
2023-10-17T19:34:03.092Z,8.93
2023-10-17T19:36:31.924Z,10.70
2023-10-17T19:39:08.087Z,10.85
2023-10-17T19:41:39.979Z,7.22
2023-10-17T19:44:08.477Z,13.02
2023-10-17T19:46:40.957Z,8.98
2023-10-17T19:49:12.718Z,11.18
2023-10-17T19:51:42.555Z,9.00
2023-10-17T19:54:12.467Z,8.52
2023-10-17T19:56:40.919Z,10.23
2023-10-17T19:59:11.286Z,10.10
2023-10-17T20:01:40.068Z,13.15
2023-10-17T20:04:08.456Z,9.98
2023-10-17T20:06:36.830Z,7.35
2023-10-17T20:09:08.574Z,8.63
2023-10-17T20:11:39.326Z,9.23
2023-10-17T20:14:08.375Z,7.80
2023-10-17T20:16:36.763Z,12.20
2023-10-17T20:19:05.083Z,10.57
2023-10-17T20:21:33.366Z,7.95
2023-10-17T20:24:01.657Z,9.68
2023-10-17T20:26:29.862Z,17.58
2023-10-17T20:28:58.128Z,10.90
2023-10-17T20:31:28.175Z,10.43
2023-10-17T20:33:58.121Z,10.70
2023-10-17T20:36:26.565Z,14.98
2023-10-17T20:38:54.829Z,10.05
2023-10-17T20:41:23.357Z,6.88
2023-10-17T20:43:52.367Z,12.10
2023-10-17T20:46:21.067Z,8.23
2023-10-17T20:48:50.336Z,10.07
2023-10-17T20:51:19.584Z,9.98
2023-10-17T20:53:48.698Z,8.82
2023-10-17T20:56:30.265Z,8.57
2023-10-17T20:59:02.826Z,8.68
2023-10-17T21:01:31.075Z,12.05
2023-10-17T21:03:59.827Z,8.93
2023-10-17T21:06:31.112Z,13.43
2023-10-17T21:08:59.684Z,7.82
2023-10-17T21:11:28.768Z,10.18
2023-10-17T21:13:58.356Z,10.25
2023-10-17T21:16:27.865Z,13.55
2023-10-17T21:18:56.321Z,10.73
2023-10-17T21:21:24.636Z,9.32
2023-10-17T21:23:54.758Z,12.75
2023-10-17T21:26:23.081Z,7.43
2023-10-17T21:28:53.781Z,9.68
2023-10-17T21:31:22.531Z,9.65
2023-10-17T21:33:51.186Z,9.10
2023-10-17T21:36:19.418Z,10.68
2023-10-17T21:38:47.830Z,9.57
2023-10-17T21:41:16.166Z,15.73
2023-10-17T21:43:44.571Z,9.82
2023-10-17T21:46:13.255Z,7.80
2023-10-17T21:48:47.743Z,12.43
2023-10-17T21:51:16.388Z,9.05
2023-10-17T21:53:45.691Z,10.70
2023-10-17T21:56:15.443Z,9.63
2023-10-17T21:58:48.435Z,10.93
2023-10-17T22:01:23.699Z,11.43
2023-10-17T22:03:52.295Z,14.65
2023-10-17T22:06:22.902Z,13.00
2023-10-17T22:08:51.097Z,13.60
2023-10-17T22:11:22.323Z,12.45
2023-10-17T22:13:51.633Z,13.98
2023-10-17T22:16:23.605Z,12.32
2023-10-17T22:18:52.233Z,13.77
2023-10-17T22:21:21.620Z,13.35
2023-10-17T22:23:51.692Z,13.75
2023-10-17T22:26:25.257Z,14.75
2023-10-17T22:28:54.739Z,11.25
2023-10-17T22:31:23.227Z,16.33
2023-10-17T22:33:51.738Z,14.05
2023-10-17T22:36:20.052Z,12.88
2023-10-17T22:38:48.433Z,14.27
2023-10-17T22:41:16.676Z,10.85
2023-10-17T22:43:44.975Z,12.73
2023-10-17T22:46:13.297Z,17.55
2023-10-17T22:48:41.627Z,15.20
2023-10-17T22:51:09.866Z,13.60
2023-10-17T22:53:39.365Z,12.32
2023-10-17T22:56:12.773Z,16.95
2023-10-17T22:58:42.032Z,15.95
2023-10-17T23:01:13.639Z,12.32
2023-10-17T23:03:42.699Z,11.52
2023-10-17T23:06:11.650Z,16.17
2023-10-17T23:08:41.587Z,11.65
2023-10-17T23:11:11.124Z,12.45
2023-10-17T23:13:39.465Z,11.57
2023-10-17T23:16:11.080Z,15.52
2023-10-17T23:18:42.632Z,14.73
2023-10-17T23:21:11.249Z,12.05
2023-10-17T23:23:39.719Z,13.55
2023-10-17T23:26:08.720Z,18.25
2023-10-17T23:28:37.512Z,9.40
2023-10-17T23:31:08.377Z,10.10
2023-10-17T23:33:36.829Z,13.02
2023-10-17T23:36:05.494Z,14.23
2023-10-17T23:38:33.854Z,15.73
2023-10-17T23:41:02.123Z,7.97
2023-10-17T23:43:30.541Z,11.82
2023-10-17T23:45:58.727Z,10.38
2023-10-17T23:48:28.192Z,10.25
2023-10-17T23:50:57.090Z,9.98
2023-10-17T23:53:28.824Z,11.98
2023-10-17T23:56:02.385Z,18.35
2023-10-17T23:58:33.339Z,14.70
